sensor_id;sensor_type;location;lat;lon;timestamp;pressure;altitude;pressure_sealevel;temperature;humidity
63903;BME280;50072;50.678;13.938;2023-03-13T00:01:45;99020.88;;;4.59;100.00
63903;BME280;50072;50.678;13.938;2023-03-13T00:04:12;99022.50;;;4.70;100.00
63903;BME280;50072;50.678;13.938;2023-03-13T00:06:44;99018.94;;;4.74;100.00
63903;BME280;50072;50.678;13.938;2023-03-13T00:09:14;99010.22;;;4.62;100.00
63903;BME280;50072;50.678;13.938;2023-03-13T00:11:43;99019.91;;;4.66;100.00
63903;BME280;50072;50.678;13.938;2023-03-13T00:14:12;99006.59;;;4.70;100.00
63903;BME280;50072;50.678;13.938;2023-03-13T00:16:37;99009.38;;;4.60;100.00
63903;BME280;50072;50.678;13.938;2023-03-13T00:19:14;99015.47;;;4.67;100.00
63903;BME280;50072;50.678;13.938;2023-03-13T00:21:42;99009.34;;;4.63;100.00
63903;BME280;50072;50.678;13.938;2023-03-13T00:24:14;99012.78;;;4.69;100.00
63903;BME280;50072;50.678;13.938;2023-03-13T00:26:42;99016.38;;;4.64;100.00
63903;BME280;50072;50.678;13.938;2023-03-13T00:29:11;99015.41;;;4.72;100.00
63903;BME280;50072;50.678;13.938;2023-03-13T00:31:44;99011.81;;;4.77;100.00
63903;BME280;50072;50.678;13.938;2023-03-13T00:34:12;99004.78;;;4.76;100.00
63903;BME280;50072;50.678;13.938;2023-03-13T00:36:44;98995.94;;;4.74;100.00
63903;BME280;50072;50.678;13.938;2023-03-13T00:39:12;98992.38;;;4.77;100.00
63903;BME280;50072;50.678;13.938;2023-03-13T00:41:44;98993.50;;;4.57;100.00
63903;BME280;50072;50.678;13.938;2023-03-13T00:44:13;98993.47;;;4.62;100.00
63903;BME280;50072;50.678;13.938;2023-03-13T00:46:42;99002.31;;;4.61;100.00
63903;BME280;50072;50.678;13.938;2023-03-13T00:49:10;98994.34;;;4.61;100.00
63903;BME280;50072;50.678;13.938;2023-03-13T00:51:36;99006.75;;;4.57;100.00
63903;BME280;50072;50.678;13.938;2023-03-13T00:54:08;98998.81;;;4.56;100.00
63903;BME280;50072;50.678;13.938;2023-03-13T00:56:42;98996.97;;;4.64;100.00
63903;BME280;50072;50.678;13.938;2023-03-13T00:59:14;99015.50;;;4.64;100.00
63903;BME280;50072;50.678;13.938;2023-03-13T01:01:42;99013.75;;;4.61;100.00
63903;BME280;50072;50.678;13.938;2023-03-13T01:04:10;98994.22;;;4.70;100.00
63903;BME280;50072;50.678;13.938;2023-03-13T01:06:39;98996.09;;;4.63;100.00
63903;BME280;50072;50.678;13.938;2023-03-13T01:09:14;99005.63;;;4.77;100.00
63903;BME280;50072;50.678;13.938;2023-03-13T01:11:43;99003.97;;;4.70;100.00
63903;BME280;50072;50.678;13.938;2023-03-13T01:14:15;98991.63;;;4.65;100.00
63903;BME280;50072;50.678;13.938;2023-03-13T01:16:42;98984.53;;;4.69;100.00
63903;BME280;50072;50.678;13.938;2023-03-13T01:19:13;98987.28;;;4.60;100.00
63903;BME280;50072;50.678;13.938;2023-03-13T01:21:45;98993.44;;;4.63;100.00
63903;BME280;50072;50.678;13.938;2023-03-13T01:24:12;98979.31;;;4.61;100.00
63903;BME280;50072;50.678;13.938;2023-03-13T01:26:42;98970.44;;;4.65;100.00
63903;BME280;50072;50.678;13.938;2023-03-13T01:29:13;98972.09;;;4.73;100.00
63903;BME280;50072;50.678;13.938;2023-03-13T01:31:40;98959.91;;;4.59;100.00
63903;BME280;50072;50.678;13.938;2023-03-13T01:34:08;98965.09;;;4.69;100.00
63903;BME280;50072;50.678;13.938;2023-03-13T01:36:38;98954.56;;;4.62;100.00
63903;BME280;50072;50.678;13.938;2023-03-13T01:39:13;98950.16;;;4.61;100.00
63903;BME280;50072;50.678;13.938;2023-03-13T01:41:42;98956.38;;;4.57;100.00
63903;BME280;50072;50.678;13.938;2023-03-13T01:44:24;98956.38;;;4.57;100.00
63903;BME280;50072;50.678;13.938;2023-03-13T01:46:51;98944.13;;;4.50;100.00
63903;BME280;50072;50.678;13.938;2023-03-13T01:49:30;98966.25;;;4.46;100.00
63903;BME280;50072;50.678;13.938;2023-03-13T01:52:16;98958.50;;;4.30;100.00
63903;BME280;50072;50.678;13.938;2023-03-13T01:55:11;98954.94;;;4.31;100.00
63903;BME280;50072;50.678;13.938;2023-03-13T01:57:43;98954.09;;;4.28;100.00
63903;BME280;50072;50.678;13.938;2023-03-13T02:00:16;98949.78;;;4.19;100.00
63903;BME280;50072;50.678;13.938;2023-03-13T02:02:56;98954.91;;;4.33;100.00
63903;BME280;50072;50.678;13.938;2023-03-13T02:05:29;98954.13;;;4.26;100.00
63903;BME280;50072;50.678;13.938;2023-03-13T02:08:17;98954.88;;;4.38;100.00
63903;BME280;50072;50.678;13.938;2023-03-13T02:13:59;98951.34;;;4.37;100.00
63903;BME280;50072;50.678;13.938;2023-03-13T02:16:42;98952.25;;;4.36;100.00
63903;BME280;50072;50.678;13.938;2023-03-13T02:25:02;98946.81;;;4.45;100.00
63903;BME280;50072;50.678;13.938;2023-03-13T02:30:13;98939.88;;;4.35;100.00
63903;BME280;50072;50.678;13.938;2023-03-13T02:32:43;98927.50;;;4.36;100.00
63903;BME280;50072;50.678;13.938;2023-03-13T02:35:13;98924.75;;;4.46;100.00
63903;BME280;50072;50.678;13.938;2023-03-13T02:37:45;98926.44;;;4.52;100.00
63903;BME280;50072;50.678;13.938;2023-03-13T02:40:14;98933.47;;;4.55;100.00
63903;BME280;50072;50.678;13.938;2023-03-13T02:42:43;98930.75;;;4.61;100.00
63903;BME280;50072;50.678;13.938;2023-03-13T02:45:14;98931.53;;;4.68;100.00
63903;BME280;50072;50.678;13.938;2023-03-13T02:47:42;98933.41;;;4.59;100.00
63903;BME280;50072;50.678;13.938;2023-03-13T02:50:11;98934.34;;;4.55;100.00
63903;BME280;50072;50.678;13.938;2023-03-13T02:53:08;98921.13;;;4.52;100.00
63903;BME280;50072;50.678;13.938;2023-03-13T02:55:42;98921.19;;;4.49;100.00
63903;BME280;50072;50.678;13.938;2023-03-13T02:58:12;98921.19;;;4.46;100.00
63903;BME280;50072;50.678;13.938;2023-03-13T03:00:44;98909.59;;;4.56;100.00
63903;BME280;50072;50.678;13.938;2023-03-13T03:03:12;98910.50;;;4.55;100.00
63903;BME280;50072;50.678;13.938;2023-03-13T03:05:41;98916.72;;;4.51;100.00
63903;BME280;50072;50.678;13.938;2023-03-13T03:08:06;98914.16;;;4.45;100.00
63903;BME280;50072;50.678;13.938;2023-03-13T03:10:42;98922.13;;;4.45;100.00
63903;BME280;50072;50.678;13.938;2023-03-13T03:13:12;98910.59;;;4.46;100.00
63903;BME280;50072;50.678;13.938;2023-03-13T03:15:42;98907.94;;;4.49;100.00
63903;BME280;50072;50.678;13.938;2023-03-13T03:18:14;98906.09;;;4.54;100.00
63903;BME280;50072;50.678;13.938;2023-03-13T03:20:42;98904.31;;;4.53;100.00
63903;BME280;50072;50.678;13.938;2023-03-13T03:23:08;98906.22;;;4.45;100.00
63903;BME280;50072;50.678;13.938;2023-03-13T03:25:42;98909.69;;;4.48;100.00
63903;BME280;50072;50.678;13.938;2023-03-13T03:28:14;98900.91;;;4.45;100.00
63903;BME280;50072;50.678;13.938;2023-03-13T03:30:42;98891.22;;;4.44;100.00
63903;BME280;50072;50.678;13.938;2023-03-13T03:33:13;98894.69;;;4.46;100.00
63903;BME280;50072;50.678;13.938;2023-03-13T03:35:42;98894.69;;;4.46;100.00
63903;BME280;50072;50.678;13.938;2023-03-13T03:38:14;98889.44;;;4.43;100.00
63903;BME280;50072;50.678;13.938;2023-03-13T03:40:42;98886.84;;;4.40;100.00
63903;BME280;50072;50.678;13.938;2023-03-13T03:43:13;98884.19;;;4.40;100.00
63903;BME280;50072;50.678;13.938;2023-03-13T03:45:42;98878.84;;;4.43;100.00
63903;BME280;50072;50.678;13.938;2023-03-13T03:48:15;98876.16;;;4.46;100.00
63903;BME280;50072;50.678;13.938;2023-03-13T03:50:42;98870.00;;;4.44;100.00
63903;BME280;50072;50.678;13.938;2023-03-13T03:53:14;98865.56;;;4.46;100.00
63903;BME280;50072;50.678;13.938;2023-03-13T03:55:42;98862.00;;;4.48;100.00
63903;BME280;50072;50.678;13.938;2023-03-13T03:58:12;98855.88;;;4.45;100.00
63903;BME280;50072;50.678;13.938;2023-03-13T04:00:43;98854.22;;;4.35;100.00
63903;BME280;50072;50.678;13.938;2023-03-13T04:03:13;98852.50;;;4.34;100.00
63903;BME280;50072;50.678;13.938;2023-03-13T04:05:45;98849.00;;;4.28;100.00
63903;BME280;50072;50.678;13.938;2023-03-13T04:08:11;98852.69;;;4.18;100.00
63903;BME280;50072;50.678;13.938;2023-03-13T04:10:42;98846.69;;;4.02;100.00
63903;BME280;50072;50.678;13.938;2023-03-13T04:13:11;98852.75;;;4.12;100.00
63903;BME280;50072;50.678;13.938;2023-03-13T04:15:42;98851.97;;;4.05;100.00
63903;BME280;50072;50.678;13.938;2023-03-13T04:18:14;98852.03;;;3.96;100.00
63903;BME280;50072;50.678;13.938;2023-03-13T04:20:42;98840.69;;;3.86;100.00
63903;BME280;50072;50.678;13.938;2023-03-13T04:23:14;98846.13;;;3.75;100.00
63903;BME280;50072;50.678;13.938;2023-03-13T04:25:42;98848.84;;;3.65;100.00
63903;BME280;50072;50.678;13.938;2023-03-13T04:28:10;98836.59;;;3.56;100.00
63903;BME280;50072;50.678;13.938;2023-03-13T04:30:42;98840.19;;;3.50;100.00
63903;BME280;50072;50.678;13.938;2023-03-13T04:33:10;98836.69;;;3.48;100.00
63903;BME280;50072;50.678;13.938;2023-03-13T04:35:43;98829.69;;;3.44;100.00
63903;BME280;50072;50.678;13.938;2023-03-13T04:38:10;98814.63;;;3.49;100.00
63903;BME280;50072;50.678;13.938;2023-03-13T04:40:42;98825.13;;;3.58;100.00
63903;BME280;50072;50.678;13.938;2023-03-13T04:43:12;98818.00;;;3.67;100.00
63903;BME280;50072;50.678;13.938;2023-03-13T04:45:44;98826.72;;;3.75;100.00
63903;BME280;50072;50.678;13.938;2023-03-13T04:48:12;98807.25;;;3.77;100.00
63903;BME280;50072;50.678;13.938;2023-03-13T04:50:42;98794.00;;;3.79;100.00
63903;BME280;50072;50.678;13.938;2023-03-13T04:53:12;98792.31;;;3.72;100.00
63903;BME280;50072;50.678;13.938;2023-03-13T04:55:40;98798.59;;;3.65;100.00
63903;BME280;50072;50.678;13.938;2023-03-13T04:58:12;98795.06;;;3.66;100.00
63903;BME280;50072;50.678;13.938;2023-03-13T05:00:41;98796.72;;;3.74;100.00
63903;BME280;50072;50.678;13.938;2023-03-13T05:03:07;98792.31;;;3.76;100.00
63903;BME280;50072;50.678;13.938;2023-03-13T05:05:34;98787.91;;;3.74;100.00
63903;BME280;50072;50.678;13.938;2023-03-13T05:08:01;98792.25;;;3.79;100.00
63903;BME280;50072;50.678;13.938;2023-03-13T05:10:26;98792.22;;;3.83;100.00
63903;BME280;50072;50.678;13.938;2023-03-13T05:12:52;98786.06;;;3.79;100.00
63903;BME280;50072;50.678;13.938;2023-03-13T05:15:18;98783.41;;;3.79;100.00
63903;BME280;50072;50.678;13.938;2023-03-13T05:17:44;98764.84;;;3.85;100.00
63903;BME280;50072;50.678;13.938;2023-03-13T05:20:12;98754.34;;;3.76;100.00
63903;BME280;50072;50.678;13.938;2023-03-13T05:22:38;98766.00;;;3.62;100.00
63903;BME280;50072;50.678;13.938;2023-03-13T05:25:04;98759.66;;;3.76;100.00
63903;BME280;50072;50.678;13.938;2023-03-13T05:27:30;98758.13;;;3.58;100.00
63903;BME280;50072;50.678;13.938;2023-03-13T05:29:56;98750.97;;;3.65;100.00
63903;BME280;50072;50.678;13.938;2023-03-13T05:32:22;98742.19;;;3.62;100.00
63903;BME280;50072;50.678;13.938;2023-03-13T05:34:52;98747.50;;;3.61;100.00
63903;BME280;50072;50.678;13.938;2023-03-13T05:37:18;98730.59;;;3.71;100.00
63903;BME280;50072;50.678;13.938;2023-03-13T05:39:44;98730.50;;;3.77;100.00
63903;BME280;50072;50.678;13.938;2023-03-13T05:42:11;98737.59;;;3.77;100.00
63903;BME280;50072;50.678;13.938;2023-03-13T05:44:37;98729.81;;;3.63;100.00
63903;BME280;50072;50.678;13.938;2023-03-13T05:47:03;98735.78;;;3.79;100.00
63903;BME280;50072;50.678;13.938;2023-03-13T05:49:29;98739.41;;;3.70;100.00
63903;BME280;50072;50.678;13.938;2023-03-13T05:51:55;98734.19;;;3.66;100.00
63903;BME280;50072;50.678;13.938;2023-03-13T05:54:21;98719.44;;;3.46;100.00
63903;BME280;50072;50.678;13.938;2023-03-13T05:56:47;98703.47;;;3.55;100.00
63903;BME280;50072;50.678;13.938;2023-03-13T05:59:15;98712.19;;;3.60;100.00
63903;BME280;50072;50.678;13.938;2023-03-13T06:01:41;98707.00;;;3.53;100.00
63903;BME280;50072;50.678;13.938;2023-03-13T06:04:07;98706.94;;;3.57;100.00
63903;BME280;50072;50.678;13.938;2023-03-13T06:06:33;98705.13;;;3.62;100.00
63903;BME280;50072;50.678;13.938;2023-03-13T06:08:59;98700.41;;;3.86;100.00
63903;BME280;50072;50.678;13.938;2023-03-13T06:11:26;98703.03;;;3.86;100.00
63903;BME280;50072;50.678;13.938;2023-03-13T06:13:52;98707.38;;;3.93;100.00
63903;BME280;50072;50.678;13.938;2023-03-13T06:16:19;98706.41;;;4.01;100.00
63903;BME280;50072;50.678;13.938;2023-03-13T06:18:45;98701.09;;;4.02;100.00
63903;BME280;50072;50.678;13.938;2023-03-13T06:21:12;98706.13;;;4.19;100.00
63903;BME280;50072;50.678;13.938;2023-03-13T06:23:37;98717.59;;;4.20;100.00
63903;BME280;50072;50.678;13.938;2023-03-13T06:26:04;98717.47;;;4.27;100.00
63903;BME280;50072;50.678;13.938;2023-03-13T06:28:30;98706.91;;;4.26;100.00
63903;BME280;50072;50.678;13.938;2023-03-13T06:31:01;98704.19;;;4.30;100.00
63903;BME280;50072;50.678;13.938;2023-03-13T06:33:27;98694.59;;;4.22;100.00
63903;BME280;50072;50.678;13.938;2023-03-13T06:35:54;98694.53;;;4.28;100.00
63903;BME280;50072;50.678;13.938;2023-03-13T06:38:20;98690.78;;;4.41;100.00
63903;BME280;50072;50.678;13.938;2023-03-13T06:40:47;98691.66;;;4.42;100.00
63903;BME280;50072;50.678;13.938;2023-03-13T06:43:13;98673.06;;;4.45;100.00
63903;BME280;50072;50.678;13.938;2023-03-13T06:45:42;98678.91;;;4.64;100.00
63903;BME280;50072;50.678;13.938;2023-03-13T06:48:07;98675.28;;;4.70;100.00
63903;BME280;50072;50.678;13.938;2023-03-13T06:50:37;98682.25;;;4.75;100.00
63903;BME280;50072;50.678;13.938;2023-03-13T06:53:03;98673.31;;;4.81;100.00
63903;BME280;50072;50.678;13.938;2023-03-13T06:55:31;98676.81;;;4.83;100.00
63903;BME280;50072;50.678;13.938;2023-03-13T06:57:58;98667.81;;;4.93;100.00
63903;BME280;50072;50.678;13.938;2023-03-13T07:00:24;98671.19;;;5.01;100.00
63903;BME280;50072;50.678;13.938;2023-03-13T07:02:51;98676.47;;;5.01;100.00
63903;BME280;50072;50.678;13.938;2023-03-13T07:05:21;98670.44;;;4.95;100.00
63903;BME280;50072;50.678;13.938;2023-03-13T07:07:46;98672.75;;;5.13;100.00
63903;BME280;50072;50.678;13.938;2023-03-13T07:10:12;98667.34;;;5.18;100.00
63903;BME280;50072;50.678;13.938;2023-03-13T07:12:42;98657.41;;;5.29;100.00
63903;BME280;50072;50.678;13.938;2023-03-13T07:15:14;98654.59;;;5.35;100.00
63903;BME280;50072;50.678;13.938;2023-03-13T07:17:42;98637.00;;;5.31;100.00
63903;BME280;50072;50.678;13.938;2023-03-13T07:20:14;98649.00;;;5.51;100.00
63903;BME280;50072;50.678;13.938;2023-03-13T07:22:42;98632.84;;;5.62;100.00
63903;BME280;50072;50.678;13.938;2023-03-13T07:25:14;98636.38;;;5.62;100.00
63903;BME280;50072;50.678;13.938;2023-03-13T07:27:42;98631.69;;;5.74;100.00
63903;BME280;50072;50.678;13.938;2023-03-13T07:30:12;98634.19;;;5.80;100.00
63903;BME280;50072;50.678;13.938;2023-03-13T07:32:42;98626.75;;;5.99;100.00
63903;BME280;50072;50.678;13.938;2023-03-13T07:35:14;98623.81;;;6.10;100.00
63903;BME280;50072;50.678;13.938;2023-03-13T07:37:45;98610.25;;;6.22;100.00
63903;BME280;50072;50.678;13.938;2023-03-13T07:40:12;98604.00;;;6.25;100.00
63903;BME280;50072;50.678;13.938;2023-03-13T07:42:42;98609.09;;;6.32;100.00
63903;BME280;50072;50.678;13.938;2023-03-13T07:45:09;98602.88;;;6.33;100.00
63903;BME280;50072;50.678;13.938;2023-03-13T07:47:42;98603.66;;;6.38;100.00
63903;BME280;50072;50.678;13.938;2023-03-13T07:50:14;98597.28;;;6.46;100.00
63903;BME280;50072;50.678;13.938;2023-03-13T07:52:42;98598.00;;;6.51;100.00
63903;BME280;50072;50.678;13.938;2023-03-13T07:55:12;98600.75;;;6.48;100.00
63903;BME280;50072;50.678;13.938;2023-03-13T07:57:40;98598.84;;;6.53;100.00
63903;BME280;50072;50.678;13.938;2023-03-13T08:00:15;98581.28;;;6.47;100.00
63903;BME280;50072;50.678;13.938;2023-03-13T08:02:42;98578.72;;;6.44;100.00
63903;BME280;50072;50.678;13.938;2023-03-13T08:05:14;98582.91;;;6.53;100.00
63903;BME280;50072;50.678;13.938;2023-03-13T08:07:39;98574.03;;;6.52;100.00
63903;BME280;50072;50.678;13.938;2023-03-13T08:10:14;98561.06;;;6.42;100.00
63903;BME280;50072;50.678;13.938;2023-03-13T08:12:42;98568.03;;;6.46;100.00
63903;BME280;50072;50.678;13.938;2023-03-13T08:15:15;98565.44;;;6.43;100.00
63903;BME280;50072;50.678;13.938;2023-03-13T08:17:42;98556.72;;;6.37;100.00
63903;BME280;50072;50.678;13.938;2023-03-13T08:20:12;98559.00;;;6.17;100.00
63903;BME280;50072;50.678;13.938;2023-03-13T08:22:45;98552.69;;;6.21;100.00
63903;BME280;50072;50.678;13.938;2023-03-13T08:25:16;98550.03;;;6.21;100.00
63903;BME280;50072;50.678;13.938;2023-03-13T08:27:42;98551.88;;;6.19;100.00
63903;BME280;50072;50.678;13.938;2023-03-13T08:30:16;98552.88;;;6.15;100.00
63903;BME280;50072;50.678;13.938;2023-03-13T08:32:42;98559.53;;;5.94;100.00
63903;BME280;50072;50.678;13.938;2023-03-13T08:35:12;98548.09;;;5.92;100.00
63903;BME280;50072;50.678;13.938;2023-03-13T08:37:42;98549.13;;;5.86;100.00
63903;BME280;50072;50.678;13.938;2023-03-13T08:40:14;98544.63;;;5.88;100.00
63903;BME280;50072;50.678;13.938;2023-03-13T08:42:42;98557.81;;;5.91;100.00
63903;BME280;50072;50.678;13.938;2023-03-13T08:45:14;98547.25;;;5.90;100.00
63903;BME280;50072;50.678;13.938;2023-03-13T08:47:42;98544.38;;;6.00;100.00
63903;BME280;50072;50.678;13.938;2023-03-13T08:50:14;98545.19;;;6.02;100.00
63903;BME280;50072;50.678;13.938;2023-03-13T08:52:44;98548.88;;;5.95;100.00
63903;BME280;50072;50.678;13.938;2023-03-13T08:55:12;98558.56;;;5.99;100.00
63903;BME280;50072;50.678;13.938;2023-03-13T08:57:44;98557.66;;;6.00;100.00
63903;BME280;50072;50.678;13.938;2023-03-13T09:00:12;98549.97;;;6.24;100.00
63903;BME280;50072;50.678;13.938;2023-03-13T09:02:44;98553.22;;;6.35;100.00
63903;BME280;50072;50.678;13.938;2023-03-13T09:05:12;98558.56;;;6.34;100.00
63903;BME280;50072;50.678;13.938;2023-03-13T09:07:43;98551.41;;;6.37;100.00
63903;BME280;50072;50.678;13.938;2023-03-13T09:10:12;98546.91;;;6.39;100.00
63903;BME280;50072;50.678;13.938;2023-03-13T09:12:45;98540.78;;;6.37;100.00
63903;BME280;50072;50.678;13.938;2023-03-13T09:15:14;98533.78;;;6.33;100.00
63903;BME280;50072;50.678;13.938;2023-03-13T09:17:41;98543.56;;;6.31;100.00
63903;BME280;50072;50.678;13.938;2023-03-13T09:20:15;98529.50;;;6.28;100.00
63903;BME280;50072;50.678;13.938;2023-03-13T09:22:42;98523.25;;;6.30;100.00
63903;BME280;50072;50.678;13.938;2023-03-13T09:25:16;98517.81;;;6.35;100.00
63903;BME280;50072;50.678;13.938;2023-03-13T09:27:42;98506.16;;;6.41;100.00
63903;BME280;50072;50.678;13.938;2023-03-13T09:30:14;98515.59;;;6.51;100.00
63903;BME280;50072;50.678;13.938;2023-03-13T09:32:42;98501.22;;;6.58;100.00
63903;BME280;50072;50.678;13.938;2023-03-13T09:35:14;98500.81;;;6.73;100.00
63903;BME280;50072;50.678;13.938;2023-03-13T09:37:42;98505.78;;;6.86;100.00
63903;BME280;50072;50.678;13.938;2023-03-13T09:40:16;98508.81;;;7.03;100.00
63903;BME280;50072;50.678;13.938;2023-03-13T09:42:58;98519.19;;;7.13;100.00
63903;BME280;50072;50.678;13.938;2023-03-13T09:45:40;98495.50;;;7.33;100.00
63903;BME280;50072;50.678;13.938;2023-03-13T09:54:27;98497.31;;;7.61;100.00
63903;BME280;50072;50.678;13.938;2023-03-13T09:59:52;98482.47;;;7.81;100.00
63903;BME280;50072;50.678;13.938;2023-03-13T10:02:24;98490.28;;;7.87;100.00
63903;BME280;50072;50.678;13.938;2023-03-13T10:05:02;98483.59;;;8.00;100.00
63903;BME280;50072;50.678;13.938;2023-03-13T10:07:42;98488.63;;;8.09;100.00
63903;BME280;50072;50.678;13.938;2023-03-13T10:10:20;98480.19;;;8.22;100.00
63903;BME280;50072;50.678;13.938;2023-03-13T10:13:04;98484.03;;;8.40;100.00
63903;BME280;50072;50.678;13.938;2023-03-13T10:16:06;98484.06;;;8.65;100.00
63903;BME280;50072;50.678;13.938;2023-03-13T10:18:46;98478.91;;;8.84;99.74
63903;BME280;50072;50.678;13.938;2023-03-13T10:21:32;98475.13;;;8.90;99.16
63903;BME280;50072;50.678;13.938;2023-03-13T10:24:16;98472.72;;;8.84;99.32
63903;BME280;50072;50.678;13.938;2023-03-13T10:26:42;98472.72;;;8.84;100.00
63903;BME280;50072;50.678;13.938;2023-03-13T10:29:29;98480.31;;;8.69;99.74
63903;BME280;50072;50.678;13.938;2023-03-13T10:32:06;98466.41;;;8.61;100.00
63903;BME280;50072;50.678;13.938;2023-03-13T10:35:00;98465.69;;;8.56;100.00
63903;BME280;50072;50.678;13.938;2023-03-13T10:37:39;98470.31;;;8.51;100.00
63903;BME280;50072;50.678;13.938;2023-03-13T10:40:23;98474.69;;;8.53;100.00
63903;BME280;50072;50.678;13.938;2023-03-13T10:42:52;98460.84;;;8.67;100.00
63903;BME280;50072;50.678;13.938;2023-03-13T10:45:20;98446.59;;;8.68;99.94
63903;BME280;50072;50.678;13.938;2023-03-13T10:47:55;98448.69;;;8.84;99.41
63903;BME280;50072;50.678;13.938;2023-03-13T10:50:24;98447.34;;;8.95;98.17
63903;BME280;50072;50.678;13.938;2023-03-13T10:52:51;98443.34;;;9.07;99.00
63903;BME280;50072;50.678;13.938;2023-03-13T10:55:23;98436.69;;;9.18;97.73
63903;BME280;50072;50.678;13.938;2023-03-13T10:58:00;98431.81;;;9.29;97.28
63903;BME280;50072;50.678;13.938;2023-03-13T11:00:34;98440.50;;;9.34;96.25
63903;BME280;50072;50.678;13.938;2023-03-13T11:03:05;98423.94;;;9.48;96.00
63903;BME280;50072;50.678;13.938;2023-03-13T11:05:37;98431.19;;;9.66;96.56
63903;BME280;50072;50.678;13.938;2023-03-13T11:10:57;98414.25;;;9.88;95.53
63903;BME280;50072;50.678;13.938;2023-03-13T11:16:20;98399.44;;;10.01;95.97
63903;BME280;50072;50.678;13.938;2023-03-13T11:19:09;98376.38;;;10.19;95.92
63903;BME280;50072;50.678;13.938;2023-03-13T11:27:31;98387.75;;;10.45;94.39
63903;BME280;50072;50.678;13.938;2023-03-13T11:39:13;98370.47;;;10.52;95.27
63903;BME280;50072;50.678;13.938;2023-03-13T11:56:20;98349.28;;;11.05;92.26
63903;BME280;50072;50.678;13.938;2023-03-13T11:59:02;98347.13;;;11.13;92.16
63903;BME280;50072;50.678;13.938;2023-03-13T12:01:42;98357.00;;;11.30;89.89
63903;BME280;50072;50.678;13.938;2023-03-13T12:07:05;98368.13;;;11.40;89.12
63903;BME280;50072;50.678;13.938;2023-03-13T12:10:17;98356.31;;;11.44;90.09
63903;BME280;50072;50.678;13.938;2023-03-13T12:12:44;98359.78;;;11.46;90.82
63903;BME280;50072;50.678;13.938;2023-03-13T12:15:43;98359.78;;;11.46;90.99
63903;BME280;50072;50.678;13.938;2023-03-13T12:18:47;98348.75;;;11.52;89.67
63903;BME280;50072;50.678;13.938;2023-03-13T12:23:49;98347.81;;;11.71;89.97
63903;BME280;50072;50.678;13.938;2023-03-13T12:26:20;98359.47;;;11.52;88.36
63903;BME280;50072;50.678;13.938;2023-03-13T12:31:56;98353.97;;;11.90;88.50
63903;BME280;50072;50.678;13.938;2023-03-13T12:34:54;98357.59;;;11.89;89.55
63903;BME280;50072;50.678;13.938;2023-03-13T12:37:47;98349.22;;;11.97;88.71
63903;BME280;50072;50.678;13.938;2023-03-13T12:40:25;98342.50;;;12.06;88.48
63903;BME280;50072;50.678;13.938;2023-03-13T12:43:01;98336.63;;;12.15;88.19
63903;BME280;50072;50.678;13.938;2023-03-13T12:45:31;98331.34;;;12.14;89.98
63903;BME280;50072;50.678;13.938;2023-03-13T12:51:19;98323.34;;;12.30;88.30
63903;BME280;50072;50.678;13.938;2023-03-13T12:57:13;98337.66;;;12.30;88.72
63903;BME280;50072;50.678;13.938;2023-03-13T12:59:54;98321.94;;;12.40;86.33
63903;BME280;50072;50.678;13.938;2023-03-13T13:02:27;98331.69;;;12.41;85.53
63903;BME280;50072;50.678;13.938;2023-03-13T13:04:57;98322.88;;;12.39;85.30
63903;BME280;50072;50.678;13.938;2023-03-13T13:07:27;98331.09;;;12.36;87.00
63903;BME280;50072;50.678;13.938;2023-03-13T13:10:18;98317.69;;;12.36;88.76
63903;BME280;50072;50.678;13.938;2023-03-13T13:15:48;98315.22;;;12.65;87.54
63903;BME280;50072;50.678;13.938;2023-03-13T13:18:32;98315.97;;;12.67;87.80
63903;BME280;50072;50.678;13.938;2023-03-13T13:23:33;98309.56;;;12.53;87.59
63903;BME280;50072;50.678;13.938;2023-03-13T13:29:00;98301.22;;;12.42;86.68
63903;BME280;50072;50.678;13.938;2023-03-13T13:36:54;98290.59;;;13.20;84.54
63903;BME280;50072;50.678;13.938;2023-03-13T13:41:53;98286.25;;;13.50;84.47
63903;BME280;50072;50.678;13.938;2023-03-13T13:44:24;98276.34;;;13.95;81.70
63903;BME280;50072;50.678;13.938;2023-03-13T13:46:51;98273.94;;;14.05;80.43
63903;BME280;50072;50.678;13.938;2023-03-13T13:49:22;98272.72;;;14.10;79.37
63903;BME280;50072;50.678;13.938;2023-03-13T13:57:14;98257.34;;;14.27;78.78
63903;BME280;50072;50.678;13.938;2023-03-13T13:59:57;98264.53;;;14.41;78.35
63903;BME280;50072;50.678;13.938;2023-03-13T14:02:33;98257.31;;;14.56;78.43
63903;BME280;50072;50.678;13.938;2023-03-13T14:05:07;98248.94;;;14.60;77.41
63903;BME280;50072;50.678;13.938;2023-03-13T14:07:46;98238.97;;;14.48;77.82
63903;BME280;50072;50.678;13.938;2023-03-13T14:10:35;98241.47;;;14.65;79.29
63903;BME280;50072;50.678;13.938;2023-03-13T14:13:13;98237.63;;;14.70;77.61
63903;BME280;50072;50.678;13.938;2023-03-13T14:15:42;98245.28;;;14.76;77.08
63903;BME280;50072;50.678;13.938;2023-03-13T14:18:13;98235.47;;;14.75;76.87
63903;BME280;50072;50.678;13.938;2023-03-13T14:21:03;98236.59;;;15.40;74.88
63903;BME280;50072;50.678;13.938;2023-03-13T14:23:43;98236.63;;;15.52;73.08
63903;BME280;50072;50.678;13.938;2023-03-13T14:26:12;98239.78;;;17.94;65.02
63903;BME280;50072;50.678;13.938;2023-03-13T14:28:41;98234.91;;;19.23;60.25
63903;BME280;50072;50.678;13.938;2023-03-13T14:31:09;98214.09;;;20.29;55.71
63903;BME280;50072;50.678;13.938;2023-03-13T14:33:37;98204.78;;;21.13;52.46
63903;BME280;50072;50.678;13.938;2023-03-13T14:36:03;98211.03;;;20.12;53.85
63903;BME280;50072;50.678;13.938;2023-03-13T14:38:29;98211.34;;;19.77;54.96
63903;BME280;50072;50.678;13.938;2023-03-13T14:40:56;98208.09;;;19.29;56.19
63903;BME280;50072;50.678;13.938;2023-03-13T14:43:34;98196.59;;;19.91;54.81
63903;BME280;50072;50.678;13.938;2023-03-13T14:48:47;98191.84;;;18.86;56.70